KIRK/IRK METAR and TAF weather

Enter ICAO airport designator
Station Type Date Time Source
KIRK METAR 2019/05/21 21:39 UTC NOAA

KIRK 212139Z AUTO 10015G23KT 1 3/4SM RA BR OVC006 13/12 A2961 RMK AO2 PK WND 09027/2105 LTG DSNT SW-NW P0006 T01280122


Station Type Date Time Source
KIRK Decoded METAR 2019/05/21 21:39 UTC NOAA

KIRKSVILLE REGIONAL AIRPORT , MO, United States (KIRK) 40-06N 092-33W 293M
May 21, 2019 - 05:39 PM EDT / 2019.05.21 2139 UTC
Wind: from the E (100 degrees) at 17 MPH (15 KT) gusting to 26 MPH (23 KT):0
Visibility: 1 3/4 mile(s):0
Sky conditions: overcast
Weather: rain; mist; Lightning observed
Precipitation last hour: 0.06 inches
Temperature: 55.0 F (12.8 C)
Dew Point: 54.0 F (12.2 C)
Relative Humidity: 96%
Pressure (altimeter): 29.61 in. Hg (1002 hPa)
ob: KIRK 212139Z AUTO 10015G23KT 1 3/4SM RA BR OVC006 13/12 A2961 RMK AO2 PK WND 09027/2105 LTG DSNT SW-NW P0006 T01280122
cycle: 21

Station Type Date Time Source
KIRK TAF UTC NOAA

Error!

Example: see airport list